Archival Weather

Bob Hope

Burbank, California (KBUR)

Report from: Monday, January 29, 2024 8:53 AM PST
Current time: Friday, June 14, 2024 4:31 AM PDT

Current weather – Weather history – Daily summaries
Weather forecast

Temperature16.1°C (61.0°F)
Dew point4.4°C (39.9°F)
Winds Calm
Visibility10 mi. (16.1 km)
Clouds Sky clear
Altimeter30.16 in.Hg (1021 mB)
Relative humidity46 %
Density altitude17 ft. (5 m)
Sea-level pressure102.0 kPa (1020 mB, 30.13 in.Hg)
Remarks Automated weather observing station with precipitation discriminator
Flight conditions Visual Meteorological Conditions
Raw dataKBUR 291653Z 00000KT 10SM CLR 16/04 A3016 RMK AO2 SLP203 T01610044
An error has occurred. This application may no longer respond until reloaded. Reload 🗙